Time;durP1;ratioP1;P1;durP2;ratioP2;P2;SDS_P1;SDS_P2;PMS_P1;PMS_P2;Temp;Humidity;BMP_temperature;BMP_pressure;BME280_temperature;BME280_humidity;BME280_pressure;Samples;Min_cycle;Max_cycle;Signal;HPM_P1;HPM_P2
2021/10/20 00:01:35;;;;;;;35.40;20.60;;;;;;;1.41;86.67;98577.62;116474;1181;60349;-74
2021/10/20 00:04:05;;;;;;;;;;;;;;;1.44;86.43;98575.04;116423;1179;60763;-68
2021/10/20 00:06:35;;;;;;;31.20;19.60;;;;;;;1.48;88.40;98572.27;116533;1181;70473;-71
2021/10/20 00:09:05;;;;;;;35.60;21.10;;;;;;;1.53;89.94;98569.49;116419;1182;66723;-68
2021/10/20 00:11:35;;;;;;;34.30;20.50;;;;;;;1.53;90.07;98566.92;116272;1184;69209;-77
2021/10/20 00:14:06;;;;;;;29.40;17.60;;;;;;;1.47;88.91;98568.27;116290;1183;60315;-69
2021/10/20 00:16:36;;;;;;;;;;;;;;;1.43;88.45;98563.55;116544;1182;60380;-72
2021/10/20 00:19:05;;;;;;;32.20;16.80;;;;;;;1.43;89.08;98564.70;116477;1182;72006;-78
2021/10/20 00:21:35;;;;;;;28.00;17.60;;;;;;;1.42;89.32;98560.48;116569;1180;66486;-76
2021/10/20 00:24:05;;;;;;;33.90;19.90;;;;;;;1.43;89.58;98559.43;116361;1184;68351;-76
2021/10/20 00:26:35;;;;;;;35.00;22.40;;;;;;;1.43;88.91;98555.58;116359;1183;60377;-75
2021/10/20 00:29:05;;;;;;;37.80;23.10;;;;;;;1.43;88.24;98553.39;116480;1182;60310;-68
2021/10/20 00:31:34;;;;;;;36.40;22.20;;;;;;;1.43;88.15;98551.23;116287;1182;71405;-69
2021/10/20 00:34:04;;;;;;;37.40;22.10;;;;;;;1.39;87.88;98549.44;116464;1182;68561;-72
2021/10/20 00:36:34;;;;;;;28.60;18.50;;;;;;;1.34;87.29;98545.88;116368;1182;69217;-71
2021/10/20 00:39:03;;;;;;;26.80;18.70;;;;;;;1.31;88.00;98542.06;116496;1181;60349;-76
2021/10/20 00:41:32;;;;;;;27.60;17.40;;;;;;;1.27;88.52;98540.16;116420;1183;60370;-73
2021/10/20 00:44:02;;;;;;;28.70;17.80;;;;;;;1.23;89.06;98537.02;116479;1182;71255;-74
2021/10/20 00:46:32;;;;;;;27.80;16.00;;;;;;;1.21;89.09;98534.63;116532;1182;68342;-77
2021/10/20 00:49:02;;;;;;;31.00;20.10;;;;;;;1.20;89.38;98531.25;116261;1184;69335;-77
2021/10/20 00:51:31;;;;;;;30.00;20.30;;;;;;;1.17;88.81;98528.06;116483;1181;60388;-68
2021/10/20 00:54:01;;;;;;;28.10;18.30;;;;;;;1.16;89.14;98521.27;116473;1181;60358;-73
2021/10/20 00:56:31;;;;;;;32.80;18.90;;;;;;;1.15;89.25;98517.56;116462;1181;72200;-67
2021/10/20 00:59:01;;;;;;;36.00;21.10;;;;;;;1.15;89.19;98522.39;116430;1181;68168;-77
2021/10/20 01:01:31;;;;;;;33.10;19.60;;;;;;;1.12;88.66;98514.75;116519;1182;68239;-69
2021/10/20 01:04:01;;;;;;;36.00;20.70;;;;;;;1.10;88.55;98517.91;116479;1182;60367;-77
2021/10/20 01:06:33;;;;;;;29.50;18.20;;;;;;;1.12;89.34;98518.44;116499;1182;60357;-68
2021/10/20 01:09:03;;;;;;;35.80;22.30;;;;;;;1.14;89.29;98520.04;116455;1181;72296;-78
2021/10/20 01:11:32;;;;;;;36.90;21.20;;;;;;;1.08;88.42;98514.82;116509;1183;68513;-69
2021/10/20 01:14:02;;;;;;;38.70;23.60;;;;;;;1.00;87.50;98517.71;116396;1182;68782;-68
2021/10/20 01:16:32;;;;;;;36.70;21.10;;;;;;;0.89;86.90;98519.39;116503;1182;60381;-78
2021/10/20 01:19:03;;;;;;;34.20;21.50;;;;;;;0.77;86.74;98517.38;116514;1182;60805;-69
2021/10/20 01:21:32;;;;;;;35.40;22.10;;;;;;;0.67;86.93;98520.42;116503;1182;71340;-79
2021/10/20 01:24:03;;;;;;;26.50;16.50;;;;;;;0.61;87.25;98516.69;116475;1182;67712;-73
2021/10/20 01:26:33;;;;;;;;;;;;;;;0.58;88.77;98520.22;116511;1182;69269;-74
2021/10/20 01:29:02;;;;;;;31.80;19.20;;;;;;;0.57;89.25;98519.86;116378;1182;60317;-69
2021/10/20 01:31:32;;;;;;;24.80;13.70;;;;;;;0.54;88.87;98519.40;116452;1182;60340;-82
2021/10/20 01:34:02;;;;;;;30.50;16.40;;;;;;;0.50;88.76;98516.38;116527;1182;72116;-74
2021/10/20 01:36:31;;;;;;;27.00;16.80;;;;;;;0.45;88.44;98519.99;116419;1182;68232;-81
2021/10/20 01:39:01;;;;;;;28.10;16.60;;;;;;;0.42;88.65;98518.83;116324;1183;69312;-73
2021/10/20 01:41:33;;;;;;;25.30;16.90;;;;;;;0.39;88.25;98518.36;116506;1173;60361;-72
2021/10/20 01:44:04;;;;;;;26.20;16.30;;;;;;;0.38;88.24;98511.25;116463;1182;60341;-68
2021/10/20 01:46:34;;;;;;;33.80;20.00;;;;;;;0.41;88.96;98515.60;116467;1183;71400;-81
2021/10/20 01:49:04;;;;;;;30.60;17.20;;;;;;;0.41;88.79;98514.19;116446;1181;68379;-67
2021/10/20 01:51:34;;;;;;;32.10;16.70;;;;;;;0.42;88.77;98513.30;116445;1182;68454;-72
2021/10/20 01:54:04;;;;;;;31.30;19.20;;;;;;;0.43;89.04;98508.88;116454;1182;60324;-75
2021/10/20 01:56:35;;;;;;;38.40;19.60;;;;;;;0.44;88.92;98509.39;116518;1181;60347;-74
2021/10/20 01:59:04;;;;;;;37.60;21.70;;;;;;;0.45;88.02;98509.40;116505;1181;72136;-80
2021/10/20 02:01:34;;;;;;;37.70;22.30;;;;;;;0.47;87.35;98508.84;116463;1182;67636;-75
2021/10/20 02:04:10;;;;;;;60.10;26.30;;;;;;;0.50;87.64;98508.67;116441;1182;69139;-69
2021/10/20 02:06:43;;;;;;;36.80;22.00;;;;;;;0.49;87.98;98510.13;116508;1182;60417;-70
2021/10/20 02:09:13;;;;;;;35.70;21.50;;;;;;;0.46;88.44;98507.71;116483;1180;60377;-79
2021/10/20 02:11:44;;;;;;;34.50;20.50;;;;;;;0.40;87.90;98504.13;116416;1182;72206;-82
2021/10/20 02:14:14;;;;;;;33.50;19.60;;;;;;;0.36;87.92;98500.97;116489;1182;67665;-77
2021/10/20 02:16:43;;;;;;;28.00;19.20;;;;;;;0.33;88.37;98505.71;116465;1177;69213;-69
2021/10/20 02:19:13;;;;;;;29.90;19.00;;;;;;;0.29;87.79;98505.08;116443;1182;60367;-83
2021/10/20 02:21:43;;;;;;;28.20;17.70;;;;;;;0.28;88.15;98506.83;116451;1180;60362;-71
2021/10/20 02:24:12;;;;;;;34.40;18.30;;;;;;;0.27;88.99;98509.46;116531;1182;72302;-72
2021/10/20 02:26:41;;;;;;;32.30;19.00;;;;;;;0.29;89.38;98509.21;116474;1182;67548;-82
2021/10/20 02:29:11;;;;;;;30.50;19.80;;;;;;;0.30;89.76;98512.34;116488;1182;67418;-72
2021/10/20 02:31:46;;;;;;;26.30;17.20;;;;;;;0.30;89.73;98510.40;116573;1181;60359;-73
2021/10/20 02:34:17;;;;;;;31.70;17.50;;;;;;;0.29;89.41;98504.05;116433;1181;60295;-81
2021/10/20 02:36:48;;;;;;;33.40;20.60;;;;;;;0.26;89.16;98505.15;116502;1182;72181;-79
2021/10/20 02:39:18;;;;;;;33.20;19.20;;;;;;;0.24;88.98;98506.87;116432;1182;67464;-82
2021/10/20 02:41:48;;;;;;;29.80;17.90;;;;;;;0.21;89.11;98509.45;116400;1182;68372;-81
2021/10/20 02:44:19;;;;;;;58.80;20.30;;;;;;;0.20;89.40;98509.02;116288;1182;60776;-81
2021/10/20 02:46:48;;;;;;;;;;;;;;;0.16;89.08;98509.91;116360;1182;60378;-79
2021/10/20 02:49:18;;;;;;;30.40;16.70;;;;;;;0.09;88.96;98509.95;116415;1182;70378;-80
2021/10/20 02:51:48;;;;;;;36.30;17.20;;;;;;;0.03;89.34;98510.41;116461;1182;68253;-80
2021/10/20 02:54:19;;;;;;;39.70;17.70;;;;;;;-0.01;90.21;98509.95;116394;1182;68243;-81
2021/10/20 02:56:49;;;;;;;29.90;15.60;;;;;;;-0.02;90.32;98512.02;116457;1181;60315;-76
2021/10/20 02:59:19;;;;;;;20.70;12.40;;;;;;;-0.02;90.37;98510.48;116484;1182;60343;-74
2021/10/20 03:01:49;;;;;;;34.80;15.90;;;;;;;0.00;91.10;98512.19;116338;1183;70618;-68
2021/10/20 03:04:19;;;;;;;28.20;13.50;;;;;;;0.00;91.18;98511.11;116511;1182;68356;-75
2021/10/20 03:06:49;;;;;;;68.10;19.70;;;;;;;0.01;90.92;98511.06;116440;1182;68300;-74
2021/10/20 03:09:18;;;;;;;53.70;19.20;;;;;;;-0.00;90.53;98514.13;116510;1181;60326;-81
2021/10/20 03:11:47;;;;;;;69.30;20.80;;;;;;;-0.03;89.91;98510.99;116444;1182;60320;-68
2021/10/20 03:14:17;;;;;;;65.60;19.50;;;;;;;-0.04;88.96;98509.95;116467;1182;72228;-67
2021/10/20 03:16:47;;;;;;;48.80;19.60;;;;;;;-0.06;88.69;98513.70;116289;1173;68379;-67
2021/10/20 03:19:16;;;;;;;29.30;15.90;;;;;;;-0.08;89.83;98512.94;116458;1182;69469;-67
2021/10/20 03:21:45;;;;;;;23.90;15.20;;;;;;;-0.11;90.62;98511.93;116454;1182;60313;-67
2021/10/20 03:24:14;;;;;;;21.30;14.50;;;;;;;-0.11;91.18;98509.98;116466;1184;60341;-69
2021/10/20 03:26:44;;;;;;;23.20;13.00;;;;;;;-0.10;91.40;98512.27;116495;1182;72178;-67
2021/10/20 03:29:13;;;;;;;26.40;16.10;;;;;;;-0.10;91.59;98506.73;116486;1182;67893;-74
2021/10/20 03:31:43;;;;;;;25.00;14.50;;;;;;;-0.12;91.67;98509.55;116518;1181;69306;-69
2021/10/20 03:34:13;;;;;;;32.30;15.70;;;;;;;-0.14;91.60;98504.47;116455;1182;60327;-68
2021/10/20 03:36:42;;;;;;;23.20;13.50;;;;;;;-0.12;91.70;98507.07;116303;1183;60335;-80
2021/10/20 03:39:11;;;;;;;22.10;14.00;;;;;;;-0.11;91.84;98505.40;116466;1182;71992;-74
2021/10/20 03:41:41;;;;;;;29.90;16.80;;;;;;;-0.06;91.86;98503.89;116407;1172;68437;-79
2021/10/20 03:44:10;;;;;;;34.50;19.20;;;;;;;-0.06;91.63;98502.19;116425;1181;68459;-69
2021/10/20 03:46:39;;;;;;;32.20;17.50;;;;;;;-0.10;90.84;98497.73;116414;1182;60370;-71
2021/10/20 03:49:09;;;;;;;29.10;15.10;;;;;;;-0.13;90.73;98502.05;116525;1180;60316;-82
2021/10/20 03:51:38;;;;;;;25.30;15.00;;;;;;;-0.16;90.98;98498.16;116436;1182;72240;-68
2021/10/20 03:54:07;;;;;;;32.50;16.10;;;;;;;-0.20;90.74;98500.77;116451;1182;67671;-70
2021/10/20 03:56:36;;;;;;;44.50;20.00;;;;;;;-0.21;90.69;98504.20;116452;1182;68604;-68
2021/10/20 03:59:06;;;;;;;39.70;21.80;;;;;;;-0.23;90.33;98497.16;116508;1182;60347;-70
2021/10/20 04:01:35;;;;;;;42.40;24.50;;;;;;;-0.26;90.26;98497.23;116477;1181;60391;-81
2021/10/20 04:04:04;;;;;;;38.70;16.80;;;;;;;-0.30;90.58;98497.14;116476;1182;72925;-78
2021/10/20 04:06:34;;;;;;;39.50;20.70;;;;;;;-0.34;90.59;98497.17;116294;1183;68240;-71
2021/10/20 04:09:05;;;;;;;47.00;24.30;;;;;;;-0.38;90.44;98496.88;116443;1182;69244;-69
2021/10/20 04:11:34;;;;;;;45.40;22.50;;;;;;;-0.42;90.00;98498.71;116371;1182;60304;-69
2021/10/20 04:14:03;;;;;;;41.30;23.10;;;;;;;-0.47;89.74;98499.65;116308;1184;60467;-74
2021/10/20 04:16:33;;;;;;;51.40;25.30;;;;;;;-0.51;89.63;98497.33;116453;1182;71317;-70
2021/10/20 04:19:03;;;;;;;43.50;23.10;;;;;;;-0.55;89.54;98497.65;116247;1184;68428;-73
2021/10/20 04:21:32;;;;;;;33.80;20.50;;;;;;;-0.58;89.51;98499.52;116468;1184;68481;-67
2021/10/20 04:24:01;;;;;;;34.40;19.10;;;;;;;-0.58;90.35;98504.48;116237;1183;60297;-81
2021/10/20 04:26:30;;;;;;;41.40;23.60;;;;;;;-0.60;90.39;98505.36;116381;1183;60350;-71
2021/10/20 04:29:00;;;;;;;93.10;27.00;;;;;;;-0.60;90.39;98500.22;116353;1182;72211;-69
2021/10/20 04:31:29;;;;;;;41.60;23.10;;;;;;;-0.60;89.81;98499.77;116107;1184;67840;-80
2021/10/20 04:33:58;;;;;;;40.20;21.90;;;;;;;-0.58;89.33;98504.16;116348;1182;69399;-81
2021/10/20 04:36:27;;;;;;;37.80;21.40;;;;;;;-0.59;89.55;98506.16;116452;1182;60368;-82
2021/10/20 04:38:57;;;;;;;47.60;27.00;;;;;;;-0.61;90.01;98506.02;116490;1182;60696;-76
2021/10/20 04:41:26;;;;;;;34.70;19.40;;;;;;;-0.61;90.05;98507.27;116277;1182;72274;-70
2021/10/20 04:43:55;;;;;;;31.60;20.10;;;;;;;-0.59;90.29;98506.54;116440;1182;68294;-73
2021/10/20 04:46:24;;;;;;;30.50;19.10;;;;;;;-0.58;90.75;98501.44;116382;1184;69058;-77
2021/10/20 04:48:54;;;;;;;30.70;19.60;;;;;;;-0.59;90.49;98500.27;116367;1183;60363;-81
2021/10/20 04:51:23;;;;;;;37.30;22.40;;;;;;;-0.59;90.55;98505.01;116355;1183;60327;-76
2021/10/20 04:53:52;;;;;;;29.90;18.70;;;;;;;-0.57;90.94;98504.20;116467;1182;72305;-70
2021/10/20 04:56:21;;;;;;;36.60;17.60;;;;;;;-0.55;91.17;98505.45;116458;1182;68894;-68
2021/10/20 04:58:50;;;;;;;33.90;19.70;;;;;;;-0.51;91.30;98504.20;116396;1182;69565;-68
2021/10/20 05:01:19;;;;;;;56.70;26.80;;;;;;;-0.48;91.63;98507.77;116146;1182;60373;-68
2021/10/20 05:03:49;;;;;;;41.00;19.30;;;;;;;-0.45;91.34;98507.88;116358;1181;60346;-68
2021/10/20 05:06:18;;;;;;;36.00;20.00;;;;;;;-0.41;91.56;98509.14;116394;1182;72874;-74
2021/10/20 05:08:47;;;;;;;41.90;23.00;;;;;;;-0.38;91.62;98507.84;116419;1182;68392;-74
2021/10/20 05:11:16;;;;;;;29.80;18.30;;;;;;;-0.34;91.36;98511.77;116433;1182;68682;-70
2021/10/20 05:13:44;;;;;;;37.90;20.00;;;;;;;-0.35;90.71;98508.36;116462;1182;60311;-75
2021/10/20 05:16:13;;;;;;;43.10;20.70;;;;;;;-0.37;90.07;98508.41;116420;1182;60277;-72
2021/10/20 05:18:43;;;;;;;37.00;20.60;;;;;;;-0.43;89.75;98507.52;116412;1182;72212;-73
2021/10/20 05:21:12;;;;;;;145.90;29.80;;;;;;;-0.48;89.31;98509.80;116408;1182;67625;-71
2021/10/20 05:23:43;;;;;;;158.90;30.30;;;;;;;-0.52;89.23;98506.02;116329;1182;69286;-79
2021/10/20 05:26:12;;;;;;;193.80;32.90;;;;;;;-0.54;89.11;98507.73;116447;1182;60431;-74
2021/10/20 05:28:41;;;;;;;84.60;25.90;;;;;;;-0.58;89.17;98509.31;116462;1181;60373;-71
2021/10/20 05:31:10;;;;;;;56.80;27.40;;;;;;;-0.60;89.13;98505.98;116461;1182;71779;-69
2021/10/20 05:33:41;;;;;;;41.30;19.90;;;;;;;-0.53;89.66;98507.20;116443;1182;66914;-78
2021/10/20 05:36:10;;;;;;;31.00;18.60;;;;;;;-0.44;90.01;98509.52;116412;1182;68480;-78
2021/10/20 05:38:39;;;;;;;29.10;16.70;;;;;;;-0.37;89.60;98508.09;116467;1182;60348;-80
2021/10/20 05:41:08;;;;;;;42.80;24.00;;;;;;;-0.30;89.03;98506.23;116413;1181;60315;-80
2021/10/20 05:43:37;;;;;;;50.00;25.20;;;;;;;-0.18;89.06;98503.46;116416;1182;72268;-72
2021/10/20 05:46:06;;;;;;;43.70;26.90;;;;;;;-0.04;88.83;98507.69;116359;1182;68266;-68
2021/10/20 05:48:35;;;;;;;67.00;30.50;;;;;;;0.10;89.24;98506.16;116453;1182;69335;-72
2021/10/20 05:51:04;;;;;;;48.60;26.20;;;;;;;0.25;88.97;98510.17;116340;1173;60334;-74
2021/10/20 05:53:33;;;;;;;53.40;27.80;;;;;;;0.39;89.20;98507.54;116435;1182;60296;-80
2021/10/20 05:56:03;;;;;;;64.50;34.30;;;;;;;0.52;88.91;98515.67;116387;1182;71415;-77
2021/10/20 05:58:32;;;;;;;64.90;28.20;;;;;;;0.64;88.72;98509.30;116454;1182;67641;-77
2021/10/20 06:01:01;;;;;;;69.40;35.70;;;;;;;0.73;88.03;98509.00;116373;1182;68431;-72
2021/10/20 06:03:31;;;;;;;47.70;26.20;;;;;;;0.89;87.99;98509.50;116414;1182;60383;-72
2021/10/20 06:06:01;;;;;;;55.90;27.80;;;;;;;1.18;87.60;98511.57;116244;1182;60366;-72
2021/10/20 06:08:30;;;;;;;55.10;30.50;;;;;;;1.62;87.01;98509.19;116209;1182;71339;-70
2021/10/20 06:10:59;;;;;;;44.90;24.30;;;;;;;2.15;86.43;98507.07;116453;1182;68042;-78
2021/10/20 06:13:27;;;;;;;45.10;25.60;;;;;;;2.70;86.15;98510.83;116460;1182;69234;-82
2021/10/20 06:15:57;;;;;;;43.80;25.00;;;;;;;3.24;82.68;98511.39;116417;1182;60367;-77
2021/10/20 06:18:28;;;;;;;49.70;25.20;;;;;;;3.80;82.75;98515.88;116445;1182;60324;-84
2021/10/20 06:20:57;;;;;;;;;;;;;;;4.27;78.97;98511.59;116446;1182;71405;-83
2021/10/20 06:23:26;;;;;;;43.40;23.60;;;;;;;4.64;76.00;98511.65;116486;1173;67480;-68
2021/10/20 06:25:57;;;;;;;32.40;20.10;;;;;;;5.07;75.56;98511.08;116451;1182;67515;-70
2021/10/20 06:28:26;;;;;;;42.00;26.00;;;;;;;5.38;74.11;98510.89;116467;1181;60331;-74
2021/10/20 06:30:55;;;;;;;41.70;24.90;;;;;;;5.93;76.59;98512.02;116517;1182;60394;-71
2021/10/20 06:33:24;;;;;;;34.80;20.30;;;;;;;6.43;74.81;98516.55;116354;1182;72127;-69
2021/10/20 06:35:55;;;;;;;30.10;19.10;;;;;;;6.89;73.03;98515.60;116417;1182;68405;-81
2021/10/20 06:38:24;;;;;;;32.30;20.30;;;;;;;7.26;68.87;98517.40;116212;1184;69952;-78
2021/10/20 06:40:53;;;;;;;41.20;26.00;;;;;;;7.68;69.62;98513.23;116515;1182;60348;-78
2021/10/20 06:43:21;;;;;;;54.40;31.10;;;;;;;7.76;66.42;98513.63;116463;1182;60345;-79
2021/10/20 06:45:51;;;;;;;55.10;32.90;;;;;;;8.17;66.98;98512.86;116430;1182;71404;-74
2021/10/20 06:48:20;;;;;;;56.30;33.90;;;;;;;8.41;66.22;98511.52;116444;1182;69160;-87
2021/10/20 06:50:49;;;;;;;51.90;31.20;;;;;;;8.89;65.78;98508.09;116396;1182;68521;-79
2021/10/20 06:53:18;;;;;;;51.40;28.70;;;;;;;9.35;64.17;98509.63;116305;1182;60360;-78
2021/10/20 06:55:48;;;;;;;46.90;30.50;;;;;;;9.65;61.50;98504.88;116444;1180;60312;-82
2021/10/20 06:58:17;;;;;;;41.80;24.50;;;;;;;9.76;60.31;98505.89;116439;1182;71626;-70
2021/10/20 07:00:46;;;;;;;35.90;23.40;;;;;;;9.50;61.06;98507.36;116431;1182;67739;-74
2021/10/20 07:03:15;;;;;;;30.20;19.00;;;;;;;9.77;60.97;98502.96;116406;1182;69363;-79
2021/10/20 07:05:44;;;;;;;27.60;17.10;;;;;;;9.93;60.98;98505.80;116459;1182;60348;-76
2021/10/20 07:08:15;;;;;;;27.50;15.30;;;;;;;9.79;59.72;98505.79;116419;1173;60374;-72
2021/10/20 07:10:44;;;;;;;21.80;15.50;;;;;;;9.80;59.65;98510.84;116126;1185;72293;-70
2021/10/20 07:13:14;;;;;;;19.40;13.20;;;;;;;10.38;59.05;98514.63;116296;1182;68350;-71
2021/10/20 07:15:44;;;;;;;19.70;14.30;;;;;;;11.01;57.49;98518.35;116432;1182;68463;-69
2021/10/20 07:18:14;;;;;;;11.60;8.30;;;;;;;11.33;56.00;98516.06;116409;1182;60370;-72
2021/10/20 07:20:43;;;;;;;11.50;8.80;;;;;;;11.52;54.35;98518.40;116394;1181;60331;-71
2021/10/20 07:23:12;;;;;;;14.80;9.60;;;;;;;11.90;54.77;98522.70;116368;1182;71410;-78
2021/10/20 07:25:41;;;;;;;18.00;10.50;;;;;;;12.16;54.75;98518.73;116413;1182;67672;-67
2021/10/20 07:28:10;;;;;;;18.80;11.80;;;;;;;12.73;54.11;98518.05;116405;1182;69188;-77
2021/10/20 07:30:39;;;;;;;16.20;11.90;;;;;;;12.54;53.95;98520.95;116417;1181;60354;-74
2021/10/20 07:33:08;;;;;;;15.60;12.30;;;;;;;12.98;52.47;98522.12;116424;1182;60368;-71
2021/10/20 07:35:37;;;;;;;20.00;11.90;;;;;;;12.96;52.67;98519.14;116318;1182;71484;-71
2021/10/20 07:38:05;;;;;;;19.00;13.10;;;;;;;12.98;52.75;98520.77;116449;1182;68468;-81
2021/10/20 07:40:35;;;;;;;17.50;11.70;;;;;;;13.82;51.15;98511.14;116396;1183;68489;-66
2021/10/20 07:43:04;;;;;;;17.60;12.00;;;;;;;13.82;51.72;98509.63;116472;1181;60354;-72
2021/10/20 07:45:32;;;;;;;20.40;11.90;;;;;;;14.10;51.00;98508.10;116446;1181;60359;-76
2021/10/20 07:48:01;;;;;;;17.80;11.90;;;;;;;14.03;49.89;98504.80;116430;1182;72219;-79
2021/10/20 07:50:32;;;;;;;14.30;10.40;;;;;;;14.29;49.47;98505.53;116434;1182;68880;-70
2021/10/20 07:53:00;;;;;;;;;;;;;;;14.56;49.46;98499.60;116440;1182;68666;-66
2021/10/20 07:55:32;;;;;;;17.80;10.50;;;;;;;14.95;47.80;98502.09;116434;1182;60368;-75
2021/10/20 07:58:01;;;;;;;13.10;10.30;;;;;;;14.88;48.01;98498.48;116432;1182;60359;-75
2021/10/20 08:00:30;;;;;;;14.30;11.20;;;;;;;15.57;47.35;98493.49;116298;1183;72806;-68
2021/10/20 08:03:01;;;;;;;16.40;10.40;;;;;;;15.52;46.20;98486.21;116262;1182;67886;-73
2021/10/20 08:05:30;;;;;;;12.30;9.50;;;;;;;15.92;45.15;98484.52;116219;1176;68515;-70
2021/10/20 08:07:59;;;;;;;14.50;9.50;;;;;;;14.88;47.00;98485.38;116228;1183;60416;-78
2021/10/20 08:10:29;;;;;;;14.50;10.80;;;;;;;15.37;46.49;98483.45;116436;1182;60318;-73
2021/10/20 08:12:58;;;;;;;;;;;;;;;15.69;46.62;98483.11;116490;1182;71603;-76
2021/10/20 08:15:27;;;;;;;16.10;12.50;;;;;;;16.16;45.09;98483.63;116458;1181;68033;-75
2021/10/20 08:18:00;;;;;;;15.50;11.60;;;;;;;16.66;44.52;98481.77;116438;1181;69232;-78
2021/10/20 08:20:32;;;;;;;17.00;11.50;;;;;;;16.62;44.39;98477.09;116258;1182;60432;-72
2021/10/20 08:23:03;;;;;;;17.70;12.80;;;;;;;17.19;43.07;98475.80;116477;1181;60801;-71
2021/10/20 08:25:36;;;;;;;15.50;11.40;;;;;;;17.06;42.52;98475.67;116418;1182;72228;-74
2021/10/20 08:28:06;;;;;;;15.70;10.80;;;;;;;16.91;43.41;98471.59;116432;1182;67681;-69
2021/10/20 08:30:35;;;;;;;21.80;12.80;;;;;;;16.38;44.11;98471.55;116230;1182;68427;-80
2021/10/20 08:33:05;;;;;;;18.60;11.20;;;;;;;17.26;42.50;98467.54;116426;1182;60316;-70
2021/10/20 08:35:37;;;;;;;17.40;12.00;;;;;;;17.51;42.19;98470.21;116286;1182;60315;-76
2021/10/20 08:38:07;;;;;;;17.50;11.00;;;;;;;18.21;41.22;98467.20;116443;1182;71448;-69
2021/10/20 08:40:39;;;;;;;15.60;11.60;;;;;;;18.36;40.64;98462.41;116427;1182;68319;-73
2021/10/20 08:43:09;;;;;;;14.20;10.40;;;;;;;18.97;40.54;98462.75;116416;1182;69993;-68
2021/10/20 08:45:38;;;;;;;13.70;9.50;;;;;;;20.04;36.63;98463.13;116432;1182;60401;-72
2021/10/20 08:48:08;;;;;;;15.60;10.30;;;;;;;19.86;36.07;98465.10;116471;1182;60342;-76
2021/10/20 08:50:38;;;;;;;16.70;10.80;;;;;;;18.96;37.39;98461.54;116452;1182;71668;-72
2021/10/20 08:53:08;;;;;;;15.20;10.40;;;;;;;18.92;37.44;98458.61;116438;1181;68498;-77
2021/10/20 08:55:37;;;;;;;14.00;10.70;;;;;;;19.05;37.66;98458.79;116438;1182;69355;-70
2021/10/20 08:58:06;;;;;;;13.10;10.10;;;;;;;19.43;36.57;98460.91;116433;1182;60364;-73
2021/10/20 09:00:35;;;;;;;12.80;9.50;;;;;;;18.31;38.69;98458.29;116420;1182;60313;-76
2021/10/20 09:03:04;;;;;;;16.30;10.10;;;;;;;18.55;38.66;98460.48;116417;1181;70501;-72
2021/10/20 09:05:33;;;;;;;13.20;10.00;;;;;;;19.08;37.69;98452.94;116436;1182;68402;-81
2021/10/20 09:08:03;;;;;;;14.30;9.70;;;;;;;19.74;36.12;98446.77;116429;1182;69248;-68
2021/10/20 09:10:33;;;;;;;12.90;10.40;;;;;;;19.79;35.58;98446.07;116433;1182;60361;-71
2021/10/20 09:13:02;;;;;;;15.10;9.30;;;;;;;19.59;36.08;98442.95;116438;1182;60844;-70
2021/10/20 09:15:35;;;;;;;11.70;8.90;;;;;;;19.44;36.78;98445.55;116438;1181;71516;-69
2021/10/20 09:18:11;;;;;;;13.90;9.90;;;;;;;20.58;34.96;98440.63;116378;1181;68418;-84
2021/10/20 09:20:43;;;;;;;13.00;9.60;;;;;;;20.08;35.19;98432.45;116416;1182;69072;-75
2021/10/20 09:23:16;;;;;;;13.90;10.10;;;;;;;20.52;35.14;98433.61;116242;1182;60370;-76
2021/10/20 09:25:47;;;;;;;14.10;10.00;;;;;;;20.56;34.40;98432.67;116425;1182;60380;-79
2021/10/20 09:28:31;;;;;;;14.50;10.00;;;;;;;21.05;33.59;98424.06;116465;1182;72336;-76
2021/10/20 09:31:03;;;;;;;14.80;9.50;;;;;;;21.06;33.36;98418.17;116456;1181;66625;-76
2021/10/20 09:33:37;;;;;;;12.90;9.30;;;;;;;20.75;33.35;98414.29;116421;1182;68225;-69
2021/10/20 09:36:09;;;;;;;13.10;9.80;;;;;;;21.36;32.94;98411.80;116439;1182;60374;-68
2021/10/20 09:38:42;;;;;;;12.80;8.90;;;;;;;21.71;31.70;98407.61;116246;1182;60354;-71
2021/10/20 09:41:11;;;;;;;13.20;9.40;;;;;;;20.68;33.53;98401.64;116456;1182;72745;-68
2021/10/20 09:43:55;;;;;;;14.50;9.70;;;;;;;21.01;33.59;98396.66;116453;1182;68256;-79
2021/10/20 09:46:38;;;;;;;14.10;8.70;;;;;;;22.06;31.92;98395.40;116332;1182;68356;-68
2021/10/20 09:49:22;;;;;;;11.50;8.30;;;;;;;22.88;29.82;98389.91;116395;1182;60709;-69
2021/10/20 09:51:57;;;;;;;13.10;9.00;;;;;;;21.67;30.66;98391.47;116205;1183;60441;-72
2021/10/20 09:54:29;;;;;;;11.30;8.10;;;;;;;21.69;31.04;98379.88;116307;1182;72245;-71
2021/10/20 09:57:00;;;;;;;12.20;7.80;;;;;;;20.77;32.52;98373.81;116387;1182;67822;-75
2021/10/20 09:59:31;;;;;;;10.60;8.40;;;;;;;20.59;32.99;98375.29;116226;1182;68271;-81
2021/10/20 10:02:00;;;;;;;9.90;7.70;;;;;;;21.25;31.84;98367.38;116427;1181;60382;-68
2021/10/20 10:04:29;;;;;;;10.80;7.90;;;;;;;20.69;33.06;98359.13;116243;1182;60367;-74
2021/10/20 10:06:59;;;;;;;12.20;8.20;;;;;;;21.34;31.94;98351.48;116385;1182;72074;-73
2021/10/20 10:09:29;;;;;;;11.80;7.60;;;;;;;21.51;31.67;98348.44;116411;1182;68443;-75
2021/10/20 10:12:09;;;;;;;10.60;7.80;;;;;;;22.15;30.38;98340.77;116405;1182;68423;-69
2021/10/20 10:14:46;;;;;;;13.30;7.80;;;;;;;21.16;32.12;98346.27;116398;1182;60370;-76
2021/10/20 10:17:18;;;;;;;13.80;8.30;;;;;;;20.83;32.73;98343.89;116279;1184;60350;-70
2021/10/20 10:19:47;;;;;;;12.70;8.70;;;;;;;20.50;33.16;98339.98;116461;1182;71441;-72
2021/10/20 10:22:21;;;;;;;13.70;8.30;;;;;;;20.40;33.58;98345.60;116437;1182;68577;-78
2021/10/20 10:24:50;;;;;;;12.90;9.70;;;;;;;20.74;33.25;98343.08;116411;1182;69889;-69
2021/10/20 10:27:20;;;;;;;15.50;9.10;;;;;;;20.80;32.81;98344.27;116396;1182;60370;-70
2021/10/20 10:29:53;;;;;;;14.20;9.30;;;;;;;20.87;32.98;98341.81;116252;1184;60350;-69
2021/10/20 10:32:46;;;;;;;11.20;8.50;;;;;;;21.35;32.52;98339.02;116275;1182;71464;-73
2021/10/20 10:35:15;;;;;;;11.40;8.20;;;;;;;21.09;32.63;98335.71;116438;1182;68157;-72
2021/10/20 10:37:44;;;;;;;15.00;9.10;;;;;;;20.44;33.60;98333.52;116458;1182;69830;-71
2021/10/20 10:40:28;;;;;;;13.00;9.40;;;;;;;20.77;33.36;98329.98;116420;1182;60794;-78
2021/10/20 10:43:05;;;;;;;12.00;8.90;;;;;;;21.04;32.65;98324.42;116399;1182;60337;-77
2021/10/20 10:45:34;;;;;;;12.70;9.00;;;;;;;20.62;33.35;98323.05;116280;1182;71412;-78
2021/10/20 10:48:08;;;;;;;12.70;8.60;;;;;;;19.49;34.93;98313.41;116468;1182;68544;-71
2021/10/20 10:50:48;;;;;;;14.60;9.10;;;;;;;20.15;34.26;98310.46;116414;1182;69479;-74
2021/10/20 10:53:35;;;;;;;16.00;8.60;;;;;;;20.29;34.04;98304.67;116408;1182;60331;-75
2021/10/20 10:56:16;;;;;;;11.10;8.50;;;;;;;20.11;35.06;98300.61;116394;1182;60866;-75
2021/10/20 10:59:06;;;;;;;12.90;8.50;;;;;;;20.17;34.25;98294.60;116565;1182;71486;-72
2021/10/20 11:01:45;;;;;;;12.60;9.50;;;;;;;20.21;34.11;98288.69;116456;1182;68387;-68
2021/10/20 11:04:34;;;;;;;11.60;8.00;;;;;;;20.32;33.76;98280.29;116434;1182;69223;-82
2021/10/20 11:07:03;;;;;;;16.00;8.80;;;;;;;20.46;33.55;98281.54;116470;1181;60359;-82
2021/10/20 11:09:34;;;;;;;14.90;9.90;;;;;;;20.44;33.13;98276.40;116408;1173;60392;-80
2021/10/20 11:12:03;;;;;;;;;;;;;;;20.28;33.68;98273.05;116450;1182;71826;-70
2021/10/20 11:14:32;;;;;;;13.50;9.30;;;;;;;20.37;33.77;98270.45;116411;1182;68434;-74
2021/10/20 11:17:06;;;;;;;19.40;10.10;;;;;;;21.25;32.45;98267.88;116298;1182;68519;-78
2021/10/20 11:19:36;;;;;;;12.20;8.60;;;;;;;21.92;31.23;98259.31;116451;1182;60348;-71
2021/10/20 11:22:05;;;;;;;12.10;8.30;;;;;;;22.18;30.83;98257.48;116425;1182;60385;-77
2021/10/20 11:24:41;;;;;;;15.80;8.70;;;;;;;22.99;29.94;98250.85;116411;1182;72218;-71
2021/10/20 11:27:10;;;;;;;13.20;8.50;;;;;;;23.16;28.76;98246.34;116333;1182;67825;-74
2021/10/20 11:29:44;;;;;;;13.30;8.80;;;;;;;24.20;27.21;98244.58;116524;1181;69272;-79
2021/10/20 11:32:17;;;;;;;11.40;8.20;;;;;;;23.40;28.93;98238.27;116385;1182;60306;-71